sensor_id;sensor_type;location;lat;lon;timestamp;temperature;humidity
37222;DHT22;23119;51.842;-2.230;2023-07-31T00:00:29;17.60;99.90
37222;DHT22;23119;51.842;-2.230;2023-07-31T00:02:57;17.60;99.90
37222;DHT22;23119;51.842;-2.230;2023-07-31T00:05:23;17.60;99.90
37222;DHT22;23119;51.842;-2.230;2023-07-31T00:07:48;17.70;99.90
37222;DHT22;23119;51.842;-2.230;2023-07-31T00:10:19;17.70;99.90
37222;DHT22;23119;51.842;-2.230;2023-07-31T00:12:45;17.60;99.90
37222;DHT22;23119;51.842;-2.230;2023-07-31T00:15:12;17.70;99.90
37222;DHT22;23119;51.842;-2.230;2023-07-31T00:17:38;17.60;99.90
37222;DHT22;23119;51.842;-2.230;2023-07-31T00:20:04;17.60;99.90
37222;DHT22;23119;51.842;-2.230;2023-07-31T00:22:32;17.70;99.90
37222;DHT22;23119;51.842;-2.230;2023-07-31T00:24:58;17.60;99.90
37222;DHT22;23119;51.842;-2.230;2023-07-31T00:27:25;17.60;99.90
37222;DHT22;23119;51.842;-2.230;2023-07-31T00:29:51;17.70;99.90
37222;DHT22;23119;51.842;-2.230;2023-07-31T00:32:16;17.70;99.90
37222;DHT22;23119;51.842;-2.230;2023-07-31T00:34:42;17.70;99.90
37222;DHT22;23119;51.842;-2.230;2023-07-31T00:37:08;17.70;99.90
37222;DHT22;23119;51.842;-2.230;2023-07-31T00:39:34;17.70;99.90
37222;DHT22;23119;51.842;-2.230;2023-07-31T00:42:03;17.70;99.90
37222;DHT22;23119;51.842;-2.230;2023-07-31T00:44:31;17.70;99.90
37222;DHT22;23119;51.842;-2.230;2023-07-31T00:46:59;17.70;99.90
37222;DHT22;23119;51.842;-2.230;2023-07-31T00:49:26;17.70;99.90
37222;DHT22;23119;51.842;-2.230;2023-07-31T00:51:54;17.70;99.90
37222;DHT22;23119;51.842;-2.230;2023-07-31T00:54:23;17.70;99.90
37222;DHT22;23119;51.842;-2.230;2023-07-31T00:56:53;17.70;99.90
37222;DHT22;23119;51.842;-2.230;2023-07-31T00:59:22;17.70;99.90
37222;DHT22;23119;51.842;-2.230;2023-07-31T01:01:50;17.70;99.90
37222;DHT22;23119;51.842;-2.230;2023-07-31T01:04:17;17.70;99.90
37222;DHT22;23119;51.842;-2.230;2023-07-31T01:06:56;17.70;99.90
37222;DHT22;23119;51.842;-2.230;2023-07-31T01:09:37;17.70;99.90
37222;DHT22;23119;51.842;-2.230;2023-07-31T01:12:07;17.70;99.90
37222;DHT22;23119;51.842;-2.230;2023-07-31T01:15:12;17.70;99.90
37222;DHT22;23119;51.842;-2.230;2023-07-31T01:17:38;17.70;99.90
37222;DHT22;23119;51.842;-2.230;2023-07-31T01:23:22;17.70;99.90
37222;DHT22;23119;51.842;-2.230;2023-07-31T01:26:12;17.70;99.90
37222;DHT22;23119;51.842;-2.230;2023-07-31T01:31:16;17.60;99.90
37222;DHT22;23119;51.842;-2.230;2023-07-31T01:33:43;17.70;99.90
37222;DHT22;23119;51.842;-2.230;2023-07-31T01:36:09;17.70;99.90
37222;DHT22;23119;51.842;-2.230;2023-07-31T01:38:35;17.70;99.90
37222;DHT22;23119;51.842;-2.230;2023-07-31T01:41:01;17.70;99.90
37222;DHT22;23119;51.842;-2.230;2023-07-31T01:43:27;17.70;99.90
37222;DHT22;23119;51.842;-2.230;2023-07-31T01:45:53;17.70;99.90
37222;DHT22;23119;51.842;-2.230;2023-07-31T01:48:21;17.70;99.90
37222;DHT22;23119;51.842;-2.230;2023-07-31T01:50:46;17.80;99.90
37222;DHT22;23119;51.842;-2.230;2023-07-31T01:53:12;17.70;99.90
37222;DHT22;23119;51.842;-2.230;2023-07-31T01:55:38;17.80;99.90
37222;DHT22;23119;51.842;-2.230;2023-07-31T01:58:04;17.70;99.90
37222;DHT22;23119;51.842;-2.230;2023-07-31T02:00:30;17.70;99.90
37222;DHT22;23119;51.842;-2.230;2023-07-31T02:02:55;17.80;99.90
37222;DHT22;23119;51.842;-2.230;2023-07-31T02:05:22;17.80;99.90
37222;DHT22;23119;51.842;-2.230;2023-07-31T02:07:48;17.80;99.90
37222;DHT22;23119;51.842;-2.230;2023-07-31T02:10:14;17.80;99.90
37222;DHT22;23119;51.842;-2.230;2023-07-31T02:12:40;17.80;99.90
37222;DHT22;23119;51.842;-2.230;2023-07-31T02:15:06;17.80;99.90
37222;DHT22;23119;51.842;-2.230;2023-07-31T02:17:31;17.80;99.90
37222;DHT22;23119;51.842;-2.230;2023-07-31T02:20:00;17.80;99.90
37222;DHT22;23119;51.842;-2.230;2023-07-31T02:22:25;17.80;99.90
37222;DHT22;23119;51.842;-2.230;2023-07-31T02:24:51;17.80;99.90
37222;DHT22;23119;51.842;-2.230;2023-07-31T02:27:19;17.80;99.90
37222;DHT22;23119;51.842;-2.230;2023-07-31T02:29:45;17.90;99.90
37222;DHT22;23119;51.842;-2.230;2023-07-31T02:32:10;17.90;99.90
37222;DHT22;23119;51.842;-2.230;2023-07-31T02:34:36;17.80;99.90
37222;DHT22;23119;51.842;-2.230;2023-07-31T02:37:02;17.90;99.90
37222;DHT22;23119;51.842;-2.230;2023-07-31T02:39:27;17.90;99.90
37222;DHT22;23119;51.842;-2.230;2023-07-31T02:41:53;17.90;99.90
37222;DHT22;23119;51.842;-2.230;2023-07-31T02:44:21;17.80;99.90
37222;DHT22;23119;51.842;-2.230;2023-07-31T02:46:47;17.90;99.90
37222;DHT22;23119;51.842;-2.230;2023-07-31T02:49:13;17.90;99.90
37222;DHT22;23119;51.842;-2.230;2023-07-31T02:51:38;17.80;99.90
37222;DHT22;23119;51.842;-2.230;2023-07-31T02:54:04;17.80;99.90
37222;DHT22;23119;51.842;-2.230;2023-07-31T02:56:30;17.80;99.90
37222;DHT22;23119;51.842;-2.230;2023-07-31T02:58:58;17.80;99.90
37222;DHT22;23119;51.842;-2.230;2023-07-31T03:01:23;17.80;99.90
37222;DHT22;23119;51.842;-2.230;2023-07-31T03:03:49;17.80;99.90
37222;DHT22;23119;51.842;-2.230;2023-07-31T03:06:15;17.80;99.90
37222;DHT22;23119;51.842;-2.230;2023-07-31T03:08:40;17.70;99.90
37222;DHT22;23119;51.842;-2.230;2023-07-31T03:11:06;17.70;99.90
37222;DHT22;23119;51.842;-2.230;2023-07-31T03:13:34;17.80;99.90
37222;DHT22;23119;51.842;-2.230;2023-07-31T03:16:02;17.80;99.90
37222;DHT22;23119;51.842;-2.230;2023-07-31T03:18:31;17.80;99.90
37222;DHT22;23119;51.842;-2.230;2023-07-31T03:20:56;17.80;99.90
37222;DHT22;23119;51.842;-2.230;2023-07-31T03:23:22;17.90;99.90
37222;DHT22;23119;51.842;-2.230;2023-07-31T03:26:01;17.80;99.90
37222;DHT22;23119;51.842;-2.230;2023-07-31T03:28:30;17.80;99.90
37222;DHT22;23119;51.842;-2.230;2023-07-31T03:30:56;17.80;99.90
37222;DHT22;23119;51.842;-2.230;2023-07-31T03:33:22;17.80;99.90
37222;DHT22;23119;51.842;-2.230;2023-07-31T03:35:48;17.80;99.90
37222;DHT22;23119;51.842;-2.230;2023-07-31T03:38:14;17.80;99.90
37222;DHT22;23119;51.842;-2.230;2023-07-31T03:40:40;17.70;99.90
37222;DHT22;23119;51.842;-2.230;2023-07-31T03:43:06;17.70;99.90
37222;DHT22;23119;51.842;-2.230;2023-07-31T03:45:32;17.70;99.90
37222;DHT22;23119;51.842;-2.230;2023-07-31T03:48:00;17.70;99.90
37222;DHT22;23119;51.842;-2.230;2023-07-31T03:50:25;17.60;99.90
37222;DHT22;23119;51.842;-2.230;2023-07-31T03:52:52;17.60;99.90
37222;DHT22;23119;51.842;-2.230;2023-07-31T03:55:17;17.60;99.90
37222;DHT22;23119;51.842;-2.230;2023-07-31T03:57:43;17.60;99.90
37222;DHT22;23119;51.842;-2.230;2023-07-31T04:00:10;17.60;99.90
37222;DHT22;23119;51.842;-2.230;2023-07-31T04:02:35;17.70;99.90
37222;DHT22;23119;51.842;-2.230;2023-07-31T04:05:03;17.70;99.90
37222;DHT22;23119;51.842;-2.230;2023-07-31T04:07:29;17.60;99.90
37222;DHT22;23119;51.842;-2.230;2023-07-31T04:09:56;17.70;99.90
37222;DHT22;23119;51.842;-2.230;2023-07-31T04:12:22;17.60;99.90
37222;DHT22;23119;51.842;-2.230;2023-07-31T04:14:48;17.60;99.90
37222;DHT22;23119;51.842;-2.230;2023-07-31T04:17:14;17.60;99.90
37222;DHT22;23119;51.842;-2.230;2023-07-31T04:19:39;17.60;99.90
37222;DHT22;23119;51.842;-2.230;2023-07-31T04:22:05;17.60;99.90
37222;DHT22;23119;51.842;-2.230;2023-07-31T04:24:33;17.60;99.90
37222;DHT22;23119;51.842;-2.230;2023-07-31T04:27:02;17.60;99.90
37222;DHT22;23119;51.842;-2.230;2023-07-31T04:29:27;17.60;99.90
37222;DHT22;23119;51.842;-2.230;2023-07-31T04:31:53;17.60;99.90
37222;DHT22;23119;51.842;-2.230;2023-07-31T04:34:19;17.60;99.90
37222;DHT22;23119;51.842;-2.230;2023-07-31T04:36:44;17.60;99.90
37222;DHT22;23119;51.842;-2.230;2023-07-31T04:39:10;17.60;99.90
37222;DHT22;23119;51.842;-2.230;2023-07-31T04:41:36;17.60;99.90
37222;DHT22;23119;51.842;-2.230;2023-07-31T04:44:02;17.60;99.90
37222;DHT22;23119;51.842;-2.230;2023-07-31T04:46:29;17.50;99.90
37222;DHT22;23119;51.842;-2.230;2023-07-31T04:48:55;17.50;99.90
37222;DHT22;23119;51.842;-2.230;2023-07-31T04:51:20;17.50;99.90
37222;DHT22;23119;51.842;-2.230;2023-07-31T04:53:46;17.50;99.90
37222;DHT22;23119;51.842;-2.230;2023-07-31T04:56:15;17.50;99.90
37222;DHT22;23119;51.842;-2.230;2023-07-31T04:58:41;17.50;99.90
37222;DHT22;23119;51.842;-2.230;2023-07-31T05:01:07;17.60;99.90
37222;DHT22;23119;51.842;-2.230;2023-07-31T05:03:33;17.60;99.90
37222;DHT22;23119;51.842;-2.230;2023-07-31T05:05:58;17.70;99.90
37222;DHT22;23119;51.842;-2.230;2023-07-31T05:08:27;18.00;99.90
37222;DHT22;23119;51.842;-2.230;2023-07-31T05:10:53;18.20;99.90
37222;DHT22;23119;51.842;-2.230;2023-07-31T05:13:18;18.20;99.90
37222;DHT22;23119;51.842;-2.230;2023-07-31T05:15:49;18.20;99.90
37222;DHT22;23119;51.842;-2.230;2023-07-31T05:18:15;18.30;99.90
37222;DHT22;23119;51.842;-2.230;2023-07-31T05:20:41;18.30;99.90
37222;DHT22;23119;51.842;-2.230;2023-07-31T05:23:07;18.30;99.90
37222;DHT22;23119;51.842;-2.230;2023-07-31T05:25:32;18.30;99.90
37222;DHT22;23119;51.842;-2.230;2023-07-31T05:28:00;18.20;99.90
37222;DHT22;23119;51.842;-2.230;2023-07-31T05:30:26;18.20;99.90
37222;DHT22;23119;51.842;-2.230;2023-07-31T05:32:54;18.20;99.90
37222;DHT22;23119;51.842;-2.230;2023-07-31T05:35:20;18.10;99.90
37222;DHT22;23119;51.842;-2.230;2023-07-31T05:37:48;18.10;99.90
37222;DHT22;23119;51.842;-2.230;2023-07-31T05:40:16;18.20;99.90
37222;DHT22;23119;51.842;-2.230;2023-07-31T05:42:42;18.20;99.90
37222;DHT22;23119;51.842;-2.230;2023-07-31T05:45:13;18.20;99.90
37222;DHT22;23119;51.842;-2.230;2023-07-31T05:47:41;18.10;99.90
37222;DHT22;23119;51.842;-2.230;2023-07-31T05:50:09;18.10;99.90
37222;DHT22;23119;51.842;-2.230;2023-07-31T05:52:37;18.20;99.90
37222;DHT22;23119;51.842;-2.230;2023-07-31T05:55:06;18.20;99.90
37222;DHT22;23119;51.842;-2.230;2023-07-31T05:57:39;18.20;99.90
37222;DHT22;23119;51.842;-2.230;2023-07-31T06:00:08;18.40;99.90
37222;DHT22;23119;51.842;-2.230;2023-07-31T06:02:34;18.30;99.90
37222;DHT22;23119;51.842;-2.230;2023-07-31T06:05:09;18.30;99.90
37222;DHT22;23119;51.842;-2.230;2023-07-31T06:07:38;18.30;99.90
37222;DHT22;23119;51.842;-2.230;2023-07-31T06:10:04;18.20;99.90
37222;DHT22;23119;51.842;-2.230;2023-07-31T06:12:34;18.20;99.90
37222;DHT22;23119;51.842;-2.230;2023-07-31T06:15:00;18.20;99.90
37222;DHT22;23119;51.842;-2.230;2023-07-31T06:17:26;18.20;99.90
37222;DHT22;23119;51.842;-2.230;2023-07-31T06:19:52;18.20;99.90
37222;DHT22;23119;51.842;-2.230;2023-07-31T06:22:20;18.20;99.90
37222;DHT22;23119;51.842;-2.230;2023-07-31T06:24:46;18.20;99.90
37222;DHT22;23119;51.842;-2.230;2023-07-31T06:27:17;18.30;99.90
37222;DHT22;23119;51.842;-2.230;2023-07-31T06:29:43;18.30;99.90
37222;DHT22;23119;51.842;-2.230;2023-07-31T06:32:09;18.30;99.90
37222;DHT22;23119;51.842;-2.230;2023-07-31T06:34:37;18.30;99.90
37222;DHT22;23119;51.842;-2.230;2023-07-31T06:37:03;18.30;99.90
37222;DHT22;23119;51.842;-2.230;2023-07-31T06:39:28;18.30;99.90
37222;DHT22;23119;51.842;-2.230;2023-07-31T06:41:54;18.30;99.90
37222;DHT22;23119;51.842;-2.230;2023-07-31T06:44:20;18.30;99.90
37222;DHT22;23119;51.842;-2.230;2023-07-31T06:46:48;18.30;99.90
37222;DHT22;23119;51.842;-2.230;2023-07-31T06:49:14;18.30;99.90
37222;DHT22;23119;51.842;-2.230;2023-07-31T06:51:42;18.40;99.90
37222;DHT22;23119;51.842;-2.230;2023-07-31T06:54:20;18.40;99.90
37222;DHT22;23119;51.842;-2.230;2023-07-31T06:56:46;18.40;99.90
37222;DHT22;23119;51.842;-2.230;2023-07-31T06:59:14;18.50;99.90
37222;DHT22;23119;51.842;-2.230;2023-07-31T07:01:43;18.50;99.90
37222;DHT22;23119;51.842;-2.230;2023-07-31T07:04:11;18.70;99.90
37222;DHT22;23119;51.842;-2.230;2023-07-31T07:06:41;18.70;99.90
37222;DHT22;23119;51.842;-2.230;2023-07-31T07:09:10;18.80;99.90
37222;DHT22;23119;51.842;-2.230;2023-07-31T07:11:37;18.90;99.90
37222;DHT22;23119;51.842;-2.230;2023-07-31T07:14:03;18.90;99.90
37222;DHT22;23119;51.842;-2.230;2023-07-31T07:16:30;18.90;99.90
37222;DHT22;23119;51.842;-2.230;2023-07-31T07:18:55;19.00;99.90
37222;DHT22;23119;51.842;-2.230;2023-07-31T07:21:26;19.10;99.90
37222;DHT22;23119;51.842;-2.230;2023-07-31T07:23:52;19.10;99.90
37222;DHT22;23119;51.842;-2.230;2023-07-31T07:26:19;19.20;99.90
37222;DHT22;23119;51.842;-2.230;2023-07-31T07:28:47;19.20;99.90
37222;DHT22;23119;51.842;-2.230;2023-07-31T07:31:13;19.30;99.90
37222;DHT22;23119;51.842;-2.230;2023-07-31T07:33:44;19.20;99.90
37222;DHT22;23119;51.842;-2.230;2023-07-31T07:36:12;19.30;99.90
37222;DHT22;23119;51.842;-2.230;2023-07-31T07:38:40;19.30;99.90
37222;DHT22;23119;51.842;-2.230;2023-07-31T07:41:06;19.20;99.90
37222;DHT22;23119;51.842;-2.230;2023-07-31T07:43:40;19.20;99.90
37222;DHT22;23119;51.842;-2.230;2023-07-31T07:46:06;19.20;99.90
37222;DHT22;23119;51.842;-2.230;2023-07-31T07:48:37;19.20;99.90
37222;DHT22;23119;51.842;-2.230;2023-07-31T07:51:05;19.20;99.90
37222;DHT22;23119;51.842;-2.230;2023-07-31T07:53:31;19.10;99.90
37222;DHT22;23119;51.842;-2.230;2023-07-31T07:56:01;19.10;99.90
37222;DHT22;23119;51.842;-2.230;2023-07-31T07:58:27;19.20;99.90
37222;DHT22;23119;51.842;-2.230;2023-07-31T08:00:52;19.40;99.90
37222;DHT22;23119;51.842;-2.230;2023-07-31T08:03:18;19.30;99.90
37222;DHT22;23119;51.842;-2.230;2023-07-31T08:05:46;19.30;99.90
37222;DHT22;23119;51.842;-2.230;2023-07-31T08:08:18;19.30;99.90
37222;DHT22;23119;51.842;-2.230;2023-07-31T08:10:47;19.30;99.90
37222;DHT22;23119;51.842;-2.230;2023-07-31T08:13:15;19.40;99.90
37222;DHT22;23119;51.842;-2.230;2023-07-31T08:15:43;19.40;99.90
37222;DHT22;23119;51.842;-2.230;2023-07-31T08:18:11;19.50;99.90
37222;DHT22;23119;51.842;-2.230;2023-07-31T08:20:42;19.60;99.90
37222;DHT22;23119;51.842;-2.230;2023-07-31T08:23:13;19.80;99.90
37222;DHT22;23119;51.842;-2.230;2023-07-31T08:25:41;20.20;99.90
37222;DHT22;23119;51.842;-2.230;2023-07-31T08:28:10;20.70;99.90
37222;DHT22;23119;51.842;-2.230;2023-07-31T08:30:38;21.60;99.90
37222;DHT22;23119;51.842;-2.230;2023-07-31T08:33:09;22.60;99.90
37222;DHT22;23119;51.842;-2.230;2023-07-31T08:35:36;23.20;99.90
37222;DHT22;23119;51.842;-2.230;2023-07-31T08:38:07;23.40;99.90
37222;DHT22;23119;51.842;-2.230;2023-07-31T08:40:36;23.30;99.90
37222;DHT22;23119;51.842;-2.230;2023-07-31T08:43:04;23.10;99.90
37222;DHT22;23119;51.842;-2.230;2023-07-31T08:45:31;22.80;99.90
37222;DHT22;23119;51.842;-2.230;2023-07-31T08:48:01;22.50;99.90
37222;DHT22;23119;51.842;-2.230;2023-07-31T08:50:26;22.30;99.90
37222;DHT22;23119;51.842;-2.230;2023-07-31T08:53:02;22.10;99.90
37222;DHT22;23119;51.842;-2.230;2023-07-31T08:55:32;21.90;99.90
37222;DHT22;23119;51.842;-2.230;2023-07-31T08:57:59;21.70;99.90
37222;DHT22;23119;51.842;-2.230;2023-07-31T09:00:25;21.60;99.90
37222;DHT22;23119;51.842;-2.230;2023-07-31T09:03:15;21.40;99.90
37222;DHT22;23119;51.842;-2.230;2023-07-31T09:05:46;21.40;99.90
37222;DHT22;23119;51.842;-2.230;2023-07-31T09:08:17;21.30;99.90
37222;DHT22;23119;51.842;-2.230;2023-07-31T09:10:46;21.30;99.90
37222;DHT22;23119;51.842;-2.230;2023-07-31T09:13:21;21.20;99.90
37222;DHT22;23119;51.842;-2.230;2023-07-31T09:15:49;21.10;99.90
37222;DHT22;23119;51.842;-2.230;2023-07-31T09:18:18;21.20;99.90
37222;DHT22;23119;51.842;-2.230;2023-07-31T09:21:01;21.20;99.90
37222;DHT22;23119;51.842;-2.230;2023-07-31T09:26:30;21.50;99.90
37222;DHT22;23119;51.842;-2.230;2023-07-31T09:29:00;21.60;99.90
37222;DHT22;23119;51.842;-2.230;2023-07-31T09:31:42;21.70;99.90
37222;DHT22;23119;51.842;-2.230;2023-07-31T09:34:29;21.70;99.90
37222;DHT22;23119;51.842;-2.230;2023-07-31T09:37:00;21.60;99.90
37222;DHT22;23119;51.842;-2.230;2023-07-31T09:39:27;21.50;99.90
37222;DHT22;23119;51.842;-2.230;2023-07-31T09:41:56;21.40;99.90
37222;DHT22;23119;51.842;-2.230;2023-07-31T09:44:43;21.40;99.90
37222;DHT22;23119;51.842;-2.230;2023-07-31T09:47:23;21.30;99.90
37222;DHT22;23119;51.842;-2.230;2023-07-31T09:49:52;21.20;99.90
37222;DHT22;23119;51.842;-2.230;2023-07-31T09:52:20;21.10;99.90
37222;DHT22;23119;51.842;-2.230;2023-07-31T09:54:48;21.10;99.90
37222;DHT22;23119;51.842;-2.230;2023-07-31T09:57:17;21.10;99.90
37222;DHT22;23119;51.842;-2.230;2023-07-31T09:59:54;21.10;99.90
37222;DHT22;23119;51.842;-2.230;2023-07-31T10:02:24;21.00;99.90
37222;DHT22;23119;51.842;-2.230;2023-07-31T10:04:57;21.10;99.90
37222;DHT22;23119;51.842;-2.230;2023-07-31T10:07:32;21.10;99.90
37222;DHT22;23119;51.842;-2.230;2023-07-31T10:10:00;20.90;99.90
37222;DHT22;23119;51.842;-2.230;2023-07-31T10:12:26;20.90;99.90
37222;DHT22;23119;51.842;-2.230;2023-07-31T10:14:59;20.90;99.90
37222;DHT22;23119;51.842;-2.230;2023-07-31T10:17:47;20.80;99.90
37222;DHT22;23119;51.842;-2.230;2023-07-31T10:20:15;20.80;99.90
37222;DHT22;23119;51.842;-2.230;2023-07-31T10:23:02;20.70;99.90
37222;DHT22;23119;51.842;-2.230;2023-07-31T10:25:27;20.60;99.90
37222;DHT22;23119;51.842;-2.230;2023-07-31T10:27:56;20.50;99.90
37222;DHT22;23119;51.842;-2.230;2023-07-31T10:30:26;20.50;99.90
37222;DHT22;23119;51.842;-2.230;2023-07-31T10:32:58;20.40;99.90
37222;DHT22;23119;51.842;-2.230;2023-07-31T10:35:27;20.30;99.90
37222;DHT22;23119;51.842;-2.230;2023-07-31T10:37:55;20.20;99.90
37222;DHT22;23119;51.842;-2.230;2023-07-31T10:40:27;20.00;99.90
37222;DHT22;23119;51.842;-2.230;2023-07-31T10:42:58;19.90;99.90
37222;DHT22;23119;51.842;-2.230;2023-07-31T10:45:36;19.90;99.90
37222;DHT22;23119;51.842;-2.230;2023-07-31T10:48:08;19.80;99.90
37222;DHT22;23119;51.842;-2.230;2023-07-31T10:50:48;19.80;99.90
37222;DHT22;23119;51.842;-2.230;2023-07-31T10:53:25;19.70;99.90
37222;DHT22;23119;51.842;-2.230;2023-07-31T10:56:07;19.60;99.90
37222;DHT22;23119;51.842;-2.230;2023-07-31T10:58:44;19.60;99.90
37222;DHT22;23119;51.842;-2.230;2023-07-31T11:01:15;19.60;99.90
37222;DHT22;23119;51.842;-2.230;2023-07-31T11:03:50;19.60;99.90
37222;DHT22;23119;51.842;-2.230;2023-07-31T11:06:20;19.70;99.90
37222;DHT22;23119;51.842;-2.230;2023-07-31T11:08:53;19.80;99.90
37222;DHT22;23119;51.842;-2.230;2023-07-31T11:11:20;19.80;99.90
37222;DHT22;23119;51.842;-2.230;2023-07-31T11:13:48;19.80;99.90
37222;DHT22;23119;51.842;-2.230;2023-07-31T11:16:19;19.80;99.90
37222;DHT22;23119;51.842;-2.230;2023-07-31T11:18:48;19.80;99.90
37222;DHT22;23119;51.842;-2.230;2023-07-31T11:21:21;19.70;99.90
37222;DHT22;23119;51.842;-2.230;2023-07-31T11:23:56;19.70;99.90
37222;DHT22;23119;51.842;-2.230;2023-07-31T11:26:27;19.70;99.90
37222;DHT22;23119;51.842;-2.230;2023-07-31T11:28:53;19.60;99.90
37222;DHT22;23119;51.842;-2.230;2023-07-31T11:31:18;19.50;99.90
37222;DHT22;23119;51.842;-2.230;2023-07-31T11:33:49;19.40;99.90
37222;DHT22;23119;51.842;-2.230;2023-07-31T11:36:19;19.40;99.90
37222;DHT22;23119;51.842;-2.230;2023-07-31T11:38:51;19.30;99.90
37222;DHT22;23119;51.842;-2.230;2023-07-31T11:41:20;19.20;99.90
37222;DHT22;23119;51.842;-2.230;2023-07-31T11:43:48;19.10;99.90
37222;DHT22;23119;51.842;-2.230;2023-07-31T11:46:24;19.20;99.90
37222;DHT22;23119;51.842;-2.230;2023-07-31T11:48:59;19.20;99.90
37222;DHT22;23119;51.842;-2.230;2023-07-31T11:51:28;19.30;99.90
37222;DHT22;23119;51.842;-2.230;2023-07-31T11:53:57;19.30;99.90
37222;DHT22;23119;51.842;-2.230;2023-07-31T11:56:27;19.40;99.90
37222;DHT22;23119;51.842;-2.230;2023-07-31T11:58:58;19.40;99.90
37222;DHT22;23119;51.842;-2.230;2023-07-31T12:01:28;19.40;99.90
37222;DHT22;23119;51.842;-2.230;2023-07-31T12:03:56;19.30;99.90
37222;DHT22;23119;51.842;-2.230;2023-07-31T12:06:35;19.20;99.90
37222;DHT22;23119;51.842;-2.230;2023-07-31T12:09:03;19.30;99.90
37222;DHT22;23119;51.842;-2.230;2023-07-31T12:11:42;19.20;99.90
37222;DHT22;23119;51.842;-2.230;2023-07-31T12:14:07;19.20;99.90
37222;DHT22;23119;51.842;-2.230;2023-07-31T12:16:35;19.20;99.90
37222;DHT22;23119;51.842;-2.230;2023-07-31T12:19:04;19.20;99.90
37222;DHT22;23119;51.842;-2.230;2023-07-31T12:21:29;19.20;99.90
37222;DHT22;23119;51.842;-2.230;2023-07-31T12:23:55;19.10;99.90
37222;DHT22;23119;51.842;-2.230;2023-07-31T12:26:21;19.00;99.90
37222;DHT22;23119;51.842;-2.230;2023-07-31T12:28:50;18.90;99.90
37222;DHT22;23119;51.842;-2.230;2023-07-31T12:31:21;18.80;99.90
37222;DHT22;23119;51.842;-2.230;2023-07-31T12:33:49;18.70;99.90
37222;DHT22;23119;51.842;-2.230;2023-07-31T12:36:17;18.70;99.90
37222;DHT22;23119;51.842;-2.230;2023-07-31T12:38:43;18.70;99.90
37222;DHT22;23119;51.842;-2.230;2023-07-31T12:41:10;18.70;99.90
37222;DHT22;23119;51.842;-2.230;2023-07-31T12:43:37;18.70;99.90
37222;DHT22;23119;51.842;-2.230;2023-07-31T12:46:06;18.70;99.90
37222;DHT22;23119;51.842;-2.230;2023-07-31T12:48:36;18.70;99.90
37222;DHT22;23119;51.842;-2.230;2023-07-31T12:51:02;18.70;99.90
37222;DHT22;23119;51.842;-2.230;2023-07-31T12:53:28;18.70;99.90
37222;DHT22;23119;51.842;-2.230;2023-07-31T12:55:55;18.80;99.90
37222;DHT22;23119;51.842;-2.230;2023-07-31T12:58:28;18.80;99.90
37222;DHT22;23119;51.842;-2.230;2023-07-31T13:00:54;18.90;99.90
37222;DHT22;23119;51.842;-2.230;2023-07-31T13:03:27;18.80;99.90
37222;DHT22;23119;51.842;-2.230;2023-07-31T13:05:52;18.80;99.90
37222;DHT22;23119;51.842;-2.230;2023-07-31T13:08:18;18.80;99.90
37222;DHT22;23119;51.842;-2.230;2023-07-31T13:10:44;18.80;99.90
37222;DHT22;23119;51.842;-2.230;2023-07-31T13:13:10;18.70;99.90
37222;DHT22;23119;51.842;-2.230;2023-07-31T13:15:38;18.70;99.90
37222;DHT22;23119;51.842;-2.230;2023-07-31T13:18:06;18.70;99.90
37222;DHT22;23119;51.842;-2.230;2023-07-31T13:20:35;18.80;99.90
37222;DHT22;23119;51.842;-2.230;2023-07-31T13:23:03;18.80;99.90
37222;DHT22;23119;51.842;-2.230;2023-07-31T13:25:28;18.70;99.90
37222;DHT22;23119;51.842;-2.230;2023-07-31T13:27:55;18.70;99.90
37222;DHT22;23119;51.842;-2.230;2023-07-31T13:30:33;18.70;99.90
37222;DHT22;23119;51.842;-2.230;2023-07-31T13:32:59;18.70;99.90
37222;DHT22;23119;51.842;-2.230;2023-07-31T13:35:27;18.90;99.90
37222;DHT22;23119;51.842;-2.230;2023-07-31T13:37:53;19.00;99.90
37222;DHT22;23119;51.842;-2.230;2023-07-31T13:40:25;19.10;99.90
37222;DHT22;23119;51.842;-2.230;2023-07-31T13:42:50;19.10;99.90
37222;DHT22;23119;51.842;-2.230;2023-07-31T13:45:16;19.30;99.90
37222;DHT22;23119;51.842;-2.230;2023-07-31T13:47:44;19.50;99.90
37222;DHT22;23119;51.842;-2.230;2023-07-31T13:50:10;19.80;99.90
37222;DHT22;23119;51.842;-2.230;2023-07-31T13:52:36;20.00;99.90
37222;DHT22;23119;51.842;-2.230;2023-07-31T13:55:01;20.20;99.90
37222;DHT22;23119;51.842;-2.230;2023-07-31T13:57:27;20.30;99.90
37222;DHT22;23119;51.842;-2.230;2023-07-31T13:59:53;20.50;99.90
37222;DHT22;23119;51.842;-2.230;2023-07-31T14:02:19;20.60;99.90
37222;DHT22;23119;51.842;-2.230;2023-07-31T14:04:47;20.80;99.90
37222;DHT22;23119;51.842;-2.230;2023-07-31T14:07:13;20.80;99.90
37222;DHT22;23119;51.842;-2.230;2023-07-31T14:09:41;20.90;99.90
37222;DHT22;23119;51.842;-2.230;2023-07-31T14:12:07;20.90;99.90
37222;DHT22;23119;51.842;-2.230;2023-07-31T14:14:33;21.00;99.90
37222;DHT22;23119;51.842;-2.230;2023-07-31T14:16:59;21.00;99.90
37222;DHT22;23119;51.842;-2.230;2023-07-31T14:19:32;21.00;99.90
37222;DHT22;23119;51.842;-2.230;2023-07-31T14:22:00;20.90;99.90
37222;DHT22;23119;51.842;-2.230;2023-07-31T14:24:30;20.90;99.90
37222;DHT22;23119;51.842;-2.230;2023-07-31T14:26:56;21.00;99.90
37222;DHT22;23119;51.842;-2.230;2023-07-31T14:29:24;21.20;99.90
37222;DHT22;23119;51.842;-2.230;2023-07-31T14:31:49;21.20;99.90
37222;DHT22;23119;51.842;-2.230;2023-07-31T14:34:27;21.20;99.90
37222;DHT22;23119;51.842;-2.230;2023-07-31T14:36:55;21.20;99.90
37222;DHT22;23119;51.842;-2.230;2023-07-31T14:39:23;21.10;99.90
37222;DHT22;23119;51.842;-2.230;2023-07-31T14:41:49;21.00;99.90
37222;DHT22;23119;51.842;-2.230;2023-07-31T14:44:15;20.90;99.90
37222;DHT22;23119;51.842;-2.230;2023-07-31T14:46:45;20.70;99.90
37222;DHT22;23119;51.842;-2.230;2023-07-31T14:49:14;20.50;99.90
37222;DHT22;23119;51.842;-2.230;2023-07-31T14:51:40;20.40;99.90
37222;DHT22;23119;51.842;-2.230;2023-07-31T14:54:08;20.30;99.90
37222;DHT22;23119;51.842;-2.230;2023-07-31T14:56:36;20.30;99.90
37222;DHT22;23119;51.842;-2.230;2023-07-31T14:59:02;20.30;99.90
37222;DHT22;23119;51.842;-2.230;2023-07-31T15:01:31;20.20;99.90
37222;DHT22;23119;51.842;-2.230;2023-07-31T15:03:57;20.20;99.90
37222;DHT22;23119;51.842;-2.230;2023-07-31T15:06:30;20.30;99.90
37222;DHT22;23119;51.842;-2.230;2023-07-31T15:08:56;20.30;99.90
37222;DHT22;23119;51.842;-2.230;2023-07-31T15:11:21;20.30;99.90
37222;DHT22;23119;51.842;-2.230;2023-07-31T15:13:53;20.30;99.90
37222;DHT22;23119;51.842;-2.230;2023-07-31T15:16:18;20.30;99.90
37222;DHT22;23119;51.842;-2.230;2023-07-31T15:18:45;20.20;99.90
37222;DHT22;23119;51.842;-2.230;2023-07-31T15:21:13;20.20;99.90
37222;DHT22;23119;51.842;-2.230;2023-07-31T15:23:41;20.20;99.90
37222;DHT22;23119;51.842;-2.230;2023-07-31T15:26:10;20.20;99.90
37222;DHT22;23119;51.842;-2.230;2023-07-31T15:28:35;20.20;99.90
37222;DHT22;23119;51.842;-2.230;2023-07-31T15:31:03;20.20;99.90